createdAt,value
2023-01-27T00:02:07.266Z,1
2023-01-27T00:12:07.333Z,1
2023-01-27T00:22:07.258Z,1
2023-01-27T00:32:07.353Z,1
2023-01-27T00:42:07.266Z,1
2023-01-27T00:52:07.322Z,1
2023-01-27T01:02:07.334Z,1
2023-01-27T01:12:07.311Z,1
2023-01-27T01:22:07.561Z,1
2023-01-27T01:32:07.333Z,1
2023-01-27T01:42:07.440Z,1
2023-01-27T01:52:07.319Z,1
2023-01-27T02:02:07.511Z,1
2023-01-27T02:12:07.323Z,1
2023-01-27T02:22:07.437Z,1
2023-01-27T02:32:07.295Z,1
2023-01-27T02:42:07.416Z,1
2023-01-27T02:52:07.496Z,1
2023-01-27T03:02:07.454Z,1
2023-01-27T03:12:07.503Z,1
2023-01-27T03:22:07.420Z,1
2023-01-27T03:32:07.495Z,1
2023-01-27T03:42:07.405Z,1
2023-01-27T03:52:07.503Z,1
2023-01-27T04:02:07.603Z,1
2023-01-27T04:12:07.482Z,1
2023-01-27T04:22:07.597Z,1
2023-01-27T04:32:07.466Z,2
2023-01-27T04:42:07.581Z,1
2023-01-27T04:52:07.463Z,1
2023-01-27T05:02:07.684Z,1
2023-01-27T05:12:07.454Z,1
2023-01-27T05:22:07.584Z,1
2023-01-27T05:32:07.670Z,2
2023-01-27T05:42:07.576Z,1
2023-01-27T05:52:07.657Z,1
2023-01-27T06:02:07.597Z,1
2023-01-27T06:12:07.648Z,1
2023-01-27T06:22:07.556Z,1
2023-01-27T06:32:07.704Z,1
2023-01-27T06:42:07.789Z,2
2023-01-27T06:52:07.656Z,1
2023-01-27T07:02:07.776Z,1
2023-01-27T07:12:07.623Z,1
2023-01-27T07:22:07.760Z,3
2023-01-27T07:32:07.648Z,5
2023-01-27T07:42:07.753Z,14
2023-01-27T07:52:07.625Z,36
2023-01-27T08:02:07.744Z,56
2023-01-27T08:12:07.814Z,66
2023-01-27T08:22:07.734Z,72
2023-01-27T08:32:07.824Z,77
2023-01-27T08:42:07.734Z,82
2023-01-27T08:52:07.808Z,83
2023-01-27T09:02:07.744Z,86
2023-01-27T09:12:07.818Z,87
2023-01-27T09:22:07.727Z,87
2023-01-27T09:32:07.839Z,87
2023-01-27T09:42:07.989Z,88
2023-01-27T09:52:07.872Z,91
2023-01-27T10:02:07.931Z,91
2023-01-27T10:12:07.800Z,93
2023-01-27T10:22:07.928Z,93
2023-01-27T10:32:07.797Z,93
2023-01-27T10:42:07.935Z,93
2023-01-27T10:52:07.811Z,93
2023-01-27T11:02:07.972Z,93
2023-01-27T11:12:08.012Z,94
2023-01-27T11:22:09.049Z,94
2023-01-27T11:32:08.049Z,95
2023-01-27T11:42:07.933Z,95
2023-01-27T11:52:08.008Z,95
2023-01-27T12:02:07.943Z,95
2023-01-27T12:12:08.024Z,96
2023-01-27T12:22:07.944Z,96
2023-01-27T12:32:08.120Z,96
2023-01-27T12:42:07.940Z,96
2023-01-27T12:52:07.998Z,96
2023-01-27T13:02:08.244Z,96
2023-01-27T13:12:08.059Z,95
2023-01-27T13:22:08.220Z,93
2023-01-27T13:32:08.067Z,93
2023-01-27T13:42:08.159Z,92
2023-01-27T13:52:08.028Z,92
2023-01-27T14:02:08.150Z,92
2023-01-27T14:12:08.172Z,93
2023-01-27T14:22:08.114Z,93
2023-01-27T14:32:08.074Z,93
2023-01-27T14:42:08.141Z,93
2023-01-27T14:52:08.224Z,93
2023-01-27T15:02:08.178Z,93
2023-01-27T15:12:08.222Z,92
2023-01-27T15:22:08.133Z,91
2023-01-27T15:32:08.276Z,91
2023-01-27T15:42:08.146Z,91
2023-01-27T15:52:08.211Z,91
2023-01-27T16:02:08.187Z,89
2023-01-27T16:12:08.202Z,86
2023-01-27T16:22:08.144Z,81
2023-01-27T16:32:08.249Z,75
2023-01-27T16:42:08.363Z,66
2023-01-27T16:52:08.215Z,51
2023-01-27T17:02:08.339Z,28
2023-01-27T17:12:08.231Z,9
2023-01-27T17:22:08.372Z,2
2023-01-27T17:32:08.318Z,1
2023-01-27T17:42:08.358Z,1
2023-01-27T17:52:08.240Z,1
2023-01-27T18:02:08.351Z,1
2023-01-27T18:12:08.416Z,1
2023-01-27T18:22:08.345Z,2
2023-01-27T18:32:08.419Z,2
2023-01-27T18:42:08.352Z,1
2023-01-27T18:52:08.432Z,1
2023-01-27T19:02:08.418Z,1
2023-01-27T19:12:08.416Z,2
2023-01-27T19:22:08.327Z,1
2023-01-27T19:32:08.511Z,1
2023-01-27T19:42:08.669Z,1
2023-01-27T19:52:08.415Z,1
2023-01-27T20:02:08.607Z,1
2023-01-27T20:12:08.442Z,2
2023-01-27T20:22:08.861Z,2
2023-01-27T20:32:08.426Z,1
2023-01-27T20:42:08.552Z,1
2023-01-27T20:52:08.450Z,1
2023-01-27T21:02:08.828Z,1
2023-01-27T21:12:08.436Z,1
2023-01-27T21:22:08.544Z,1
2023-01-27T21:32:08.775Z,1
2023-01-27T21:42:08.540Z,1
2023-01-27T21:52:08.602Z,1
2023-01-27T22:02:08.531Z,1
2023-01-27T22:12:08.589Z,2
2023-01-27T22:22:08.582Z,1
2023-01-27T22:32:08.607Z,1
2023-01-27T22:42:08.725Z,1
2023-01-27T22:52:08.608Z,1
2023-01-27T23:02:08.805Z,1
2023-01-27T23:12:08.599Z,1
2023-01-27T23:22:08.711Z,1
2023-01-27T23:32:08.587Z,1
2023-01-27T23:42:08.724Z,1
2023-01-27T23:52:08.602Z,1
